sensor_id;sensor_type;location;lat;lon;timestamp;temperature;humidity
3001;DHT22;1510;51.072;6.678;2023-03-17T00:00:46;7.90;84.20
3001;DHT22;1510;51.072;6.678;2023-03-17T00:03:19;7.80;84.50
3001;DHT22;1510;51.072;6.678;2023-03-17T00:05:54;7.80;84.30
3001;DHT22;1510;51.072;6.678;2023-03-17T00:08:24;7.70;84.70
3001;DHT22;1510;51.072;6.678;2023-03-17T00:10:52;7.80;85.10
3001;DHT22;1510;51.072;6.678;2023-03-17T00:13:23;7.70;84.70
3001;DHT22;1510;51.072;6.678;2023-03-17T00:15:53;7.70;85.20
3001;DHT22;1510;51.072;6.678;2023-03-17T00:18:23;7.50;85.70
3001;DHT22;1510;51.072;6.678;2023-03-17T00:20:59;7.50;85.80
3001;DHT22;1510;51.072;6.678;2023-03-17T00:26:02;7.40;86.40
3001;DHT22;1510;51.072;6.678;2023-03-17T00:28:30;7.50;86.70
3001;DHT22;1510;51.072;6.678;2023-03-17T00:30:59;7.40;86.70
3001;DHT22;1510;51.072;6.678;2023-03-17T00:33:29;7.30;87.60
3001;DHT22;1510;51.072;6.678;2023-03-17T00:36:04;7.20;87.70
3001;DHT22;1510;51.072;6.678;2023-03-17T00:38:32;7.20;87.90
3001;DHT22;1510;51.072;6.678;2023-03-17T00:41:02;7.10;89.50
3001;DHT22;1510;51.072;6.678;2023-03-17T00:43:28;7.10;89.10
3001;DHT22;1510;51.072;6.678;2023-03-17T00:45:56;7.20;89.00
3001;DHT22;1510;51.072;6.678;2023-03-17T00:48:28;7.20;88.00
3001;DHT22;1510;51.072;6.678;2023-03-17T00:50:59;7.30;86.90
3001;DHT22;1510;51.072;6.678;2023-03-17T00:53:28;7.40;87.20
3001;DHT22;1510;51.072;6.678;2023-03-17T00:55:55;7.20;86.90
3001;DHT22;1510;51.072;6.678;2023-03-17T00:58:25;7.30;88.00
3001;DHT22;1510;51.072;6.678;2023-03-17T01:00:53;7.30;87.70
3001;DHT22;1510;51.072;6.678;2023-03-17T01:03:21;7.30;87.60
3001;DHT22;1510;51.072;6.678;2023-03-17T01:05:50;7.30;86.40
3001;DHT22;1510;51.072;6.678;2023-03-17T01:08:19;7.30;88.20
3001;DHT22;1510;51.072;6.678;2023-03-17T01:10:49;7.40;86.70
3001;DHT22;1510;51.072;6.678;2023-03-17T01:13:16;7.40;85.80
3001;DHT22;1510;51.072;6.678;2023-03-17T01:15:45;7.50;85.20
3001;DHT22;1510;51.072;6.678;2023-03-17T01:18:16;7.60;84.90
3001;DHT22;1510;51.072;6.678;2023-03-17T01:20:43;7.60;84.60
3001;DHT22;1510;51.072;6.678;2023-03-17T01:23:11;7.60;84.90
3001;DHT22;1510;51.072;6.678;2023-03-17T01:25:39;7.60;84.70
3001;DHT22;1510;51.072;6.678;2023-03-17T01:28:13;7.60;84.50
3001;DHT22;1510;51.072;6.678;2023-03-17T01:30:40;7.60;85.00
3001;DHT22;1510;51.072;6.678;2023-03-17T01:33:09;7.70;84.40
3001;DHT22;1510;51.072;6.678;2023-03-17T01:35:38;7.60;84.90
3001;DHT22;1510;51.072;6.678;2023-03-17T01:38:06;7.60;85.20
3001;DHT22;1510;51.072;6.678;2023-03-17T01:40:36;7.60;85.50
3001;DHT22;1510;51.072;6.678;2023-03-17T01:43:16;7.50;85.00
3001;DHT22;1510;51.072;6.678;2023-03-17T01:48:57;7.40;86.00
3001;DHT22;1510;51.072;6.678;2023-03-17T01:51:27;7.30;86.20
3001;DHT22;1510;51.072;6.678;2023-03-17T01:53:58;7.30;86.80
3001;DHT22;1510;51.072;6.678;2023-03-17T01:56:25;7.30;86.90
3001;DHT22;1510;51.072;6.678;2023-03-17T01:58:55;7.30;87.10
3001;DHT22;1510;51.072;6.678;2023-03-17T02:01:27;7.30;87.30
3001;DHT22;1510;51.072;6.678;2023-03-17T02:03:57;7.30;87.40
3001;DHT22;1510;51.072;6.678;2023-03-17T02:06:24;7.20;87.00
3001;DHT22;1510;51.072;6.678;2023-03-17T02:08:51;7.20;87.40
3001;DHT22;1510;51.072;6.678;2023-03-17T02:11:19;7.20;87.50
3001;DHT22;1510;51.072;6.678;2023-03-17T02:13:48;7.20;87.10
3001;DHT22;1510;51.072;6.678;2023-03-17T02:16:16;7.20;87.40
3001;DHT22;1510;51.072;6.678;2023-03-17T02:18:44;7.20;87.30
3001;DHT22;1510;51.072;6.678;2023-03-17T02:21:33;7.20;87.50
3001;DHT22;1510;51.072;6.678;2023-03-17T02:24:06;7.00;88.70
3001;DHT22;1510;51.072;6.678;2023-03-17T02:26:34;6.90;90.20
3001;DHT22;1510;51.072;6.678;2023-03-17T02:29:03;6.80;90.50
3001;DHT22;1510;51.072;6.678;2023-03-17T02:31:31;6.80;90.20
3001;DHT22;1510;51.072;6.678;2023-03-17T02:33:59;6.70;90.10
3001;DHT22;1510;51.072;6.678;2023-03-17T02:36:29;6.60;90.10
3001;DHT22;1510;51.072;6.678;2023-03-17T02:38:56;6.60;90.60
3001;DHT22;1510;51.072;6.678;2023-03-17T02:41:24;6.60;90.50
3001;DHT22;1510;51.072;6.678;2023-03-17T02:43:52;6.50;91.00
3001;DHT22;1510;51.072;6.678;2023-03-17T02:46:20;6.60;90.40
3001;DHT22;1510;51.072;6.678;2023-03-17T02:48:48;6.60;90.40
3001;DHT22;1510;51.072;6.678;2023-03-17T02:51:18;6.50;90.50
3001;DHT22;1510;51.072;6.678;2023-03-17T02:53:47;6.50;90.90
3001;DHT22;1510;51.072;6.678;2023-03-17T02:56:14;6.60;90.20
3001;DHT22;1510;51.072;6.678;2023-03-17T02:58:41;6.50;90.70
3001;DHT22;1510;51.072;6.678;2023-03-17T03:01:09;6.60;90.10
3001;DHT22;1510;51.072;6.678;2023-03-17T03:03:37;6.60;90.10
3001;DHT22;1510;51.072;6.678;2023-03-17T03:06:05;6.60;90.30
3001;DHT22;1510;51.072;6.678;2023-03-17T03:08:33;6.60;90.40
3001;DHT22;1510;51.072;6.678;2023-03-17T03:11:01;6.60;90.10
3001;DHT22;1510;51.072;6.678;2023-03-17T03:13:29;6.70;90.10
3001;DHT22;1510;51.072;6.678;2023-03-17T03:15:56;6.60;90.10
3001;DHT22;1510;51.072;6.678;2023-03-17T03:18:24;6.70;90.10
3001;DHT22;1510;51.072;6.678;2023-03-17T03:20:52;6.70;90.10
3001;DHT22;1510;51.072;6.678;2023-03-17T03:23:19;6.70;90.10
3001;DHT22;1510;51.072;6.678;2023-03-17T03:25:47;6.70;90.10
3001;DHT22;1510;51.072;6.678;2023-03-17T03:28:15;6.60;90.10
3001;DHT22;1510;51.072;6.678;2023-03-17T03:30:44;6.70;90.10
3001;DHT22;1510;51.072;6.678;2023-03-17T03:33:15;6.60;90.10
3001;DHT22;1510;51.072;6.678;2023-03-17T03:35:43;6.60;90.40
3001;DHT22;1510;51.072;6.678;2023-03-17T03:38:12;6.50;90.00
3001;DHT22;1510;51.072;6.678;2023-03-17T03:40:40;6.60;90.40
3001;DHT22;1510;51.072;6.678;2023-03-17T03:43:07;6.60;90.10
3001;DHT22;1510;51.072;6.678;2023-03-17T03:45:35;6.60;90.10
3001;DHT22;1510;51.072;6.678;2023-03-17T03:48:03;6.60;90.10
3001;DHT22;1510;51.072;6.678;2023-03-17T03:50:34;6.60;90.10
3001;DHT22;1510;51.072;6.678;2023-03-17T03:53:01;6.50;90.30
3001;DHT22;1510;51.072;6.678;2023-03-17T03:55:28;6.40;90.70
3001;DHT22;1510;51.072;6.678;2023-03-17T03:57:57;6.50;90.40
3001;DHT22;1510;51.072;6.678;2023-03-17T04:00:24;6.40;90.50
3001;DHT22;1510;51.072;6.678;2023-03-17T04:02:53;6.40;91.10
3001;DHT22;1510;51.072;6.678;2023-03-17T04:05:21;6.40;90.70
3001;DHT22;1510;51.072;6.678;2023-03-17T04:07:48;6.50;90.80
3001;DHT22;1510;51.072;6.678;2023-03-17T04:10:15;6.40;90.70
3001;DHT22;1510;51.072;6.678;2023-03-17T04:12:42;6.40;90.70
3001;DHT22;1510;51.072;6.678;2023-03-17T04:15:14;6.40;90.50
3001;DHT22;1510;51.072;6.678;2023-03-17T04:17:41;6.50;90.20
3001;DHT22;1510;51.072;6.678;2023-03-17T04:20:12;6.50;90.10
3001;DHT22;1510;51.072;6.678;2023-03-17T04:22:39;6.50;90.00
3001;DHT22;1510;51.072;6.678;2023-03-17T04:25:09;6.50;90.00
3001;DHT22;1510;51.072;6.678;2023-03-17T04:27:38;6.50;90.40
3001;DHT22;1510;51.072;6.678;2023-03-17T04:30:09;6.50;90.00
3001;DHT22;1510;51.072;6.678;2023-03-17T04:32:36;6.40;90.50
3001;DHT22;1510;51.072;6.678;2023-03-17T04:35:04;6.40;90.60
3001;DHT22;1510;51.072;6.678;2023-03-17T04:37:35;6.50;90.50
3001;DHT22;1510;51.072;6.678;2023-03-17T04:40:04;6.40;90.50
3001;DHT22;1510;51.072;6.678;2023-03-17T04:42:32;6.50;90.40
3001;DHT22;1510;51.072;6.678;2023-03-17T04:45:01;6.50;90.30
3001;DHT22;1510;51.072;6.678;2023-03-17T04:47:28;6.60;90.10
3001;DHT22;1510;51.072;6.678;2023-03-17T04:49:55;6.50;90.30
3001;DHT22;1510;51.072;6.678;2023-03-17T04:52:22;6.50;90.00
3001;DHT22;1510;51.072;6.678;2023-03-17T04:54:50;6.40;90.80
3001;DHT22;1510;51.072;6.678;2023-03-17T04:57:17;6.40;90.60
3001;DHT22;1510;51.072;6.678;2023-03-17T04:59:46;6.40;90.60
3001;DHT22;1510;51.072;6.678;2023-03-17T05:02:13;6.40;90.60
3001;DHT22;1510;51.072;6.678;2023-03-17T05:04:40;6.40;91.10
3001;DHT22;1510;51.072;6.678;2023-03-17T05:07:08;6.40;91.30
3001;DHT22;1510;51.072;6.678;2023-03-17T05:09:34;6.30;91.50
3001;DHT22;1510;51.072;6.678;2023-03-17T05:12:04;6.30;91.80
3001;DHT22;1510;51.072;6.678;2023-03-17T05:14:33;6.20;91.90
3001;DHT22;1510;51.072;6.678;2023-03-17T05:17:01;6.10;92.00
3001;DHT22;1510;51.072;6.678;2023-03-17T05:19:31;6.20;92.10
3001;DHT22;1510;51.072;6.678;2023-03-17T05:21:58;6.20;92.20
3001;DHT22;1510;51.072;6.678;2023-03-17T05:24:33;6.10;92.50
3001;DHT22;1510;51.072;6.678;2023-03-17T05:27:06;6.00;92.60
3001;DHT22;1510;51.072;6.678;2023-03-17T05:29:38;6.10;93.00
3001;DHT22;1510;51.072;6.678;2023-03-17T05:32:05;6.00;93.00
3001;DHT22;1510;51.072;6.678;2023-03-17T05:34:32;6.00;93.10
3001;DHT22;1510;51.072;6.678;2023-03-17T05:37:00;6.00;93.20
3001;DHT22;1510;51.072;6.678;2023-03-17T05:39:35;5.90;93.30
3001;DHT22;1510;51.072;6.678;2023-03-17T05:42:06;6.00;93.50
3001;DHT22;1510;51.072;6.678;2023-03-17T05:44:33;5.90;93.30
3001;DHT22;1510;51.072;6.678;2023-03-17T05:47:00;6.00;93.10
3001;DHT22;1510;51.072;6.678;2023-03-17T05:49:28;6.10;93.00
3001;DHT22;1510;51.072;6.678;2023-03-17T05:51:57;6.00;92.90
3001;DHT22;1510;51.072;6.678;2023-03-17T05:54:31;6.20;93.10
3001;DHT22;1510;51.072;6.678;2023-03-17T05:56:58;6.20;93.10
3001;DHT22;1510;51.072;6.678;2023-03-17T05:59:26;6.10;93.10
3001;DHT22;1510;51.072;6.678;2023-03-17T06:01:54;6.20;92.90
3001;DHT22;1510;51.072;6.678;2023-03-17T06:04:21;6.20;92.90
3001;DHT22;1510;51.072;6.678;2023-03-17T06:06:49;6.20;93.00
3001;DHT22;1510;51.072;6.678;2023-03-17T06:09:16;6.20;92.70
3001;DHT22;1510;51.072;6.678;2023-03-17T06:11:43;6.30;92.70
3001;DHT22;1510;51.072;6.678;2023-03-17T06:14:11;6.30;92.70
3001;DHT22;1510;51.072;6.678;2023-03-17T06:16:39;6.30;92.50
3001;DHT22;1510;51.072;6.678;2023-03-17T06:19:06;6.40;92.60
3001;DHT22;1510;51.072;6.678;2023-03-17T06:21:33;6.40;93.10
3001;DHT22;1510;51.072;6.678;2023-03-17T06:24:03;6.50;92.90
3001;DHT22;1510;51.072;6.678;2023-03-17T06:26:31;6.50;93.00
3001;DHT22;1510;51.072;6.678;2023-03-17T06:28:58;6.50;92.50
3001;DHT22;1510;51.072;6.678;2023-03-17T06:31:25;6.60;92.80
3001;DHT22;1510;51.072;6.678;2023-03-17T06:33:54;6.70;92.40
3001;DHT22;1510;51.072;6.678;2023-03-17T06:36:21;6.70;92.50
3001;DHT22;1510;51.072;6.678;2023-03-17T06:38:48;6.80;92.40
3001;DHT22;1510;51.072;6.678;2023-03-17T06:41:16;6.90;92.10
3001;DHT22;1510;51.072;6.678;2023-03-17T06:43:43;7.00;91.60
3001;DHT22;1510;51.072;6.678;2023-03-17T06:46:10;7.10;91.20
3001;DHT22;1510;51.072;6.678;2023-03-17T06:48:38;7.10;90.90
3001;DHT22;1510;51.072;6.678;2023-03-17T06:51:07;7.30;91.20
3001;DHT22;1510;51.072;6.678;2023-03-17T06:53:34;7.30;91.00
3001;DHT22;1510;51.072;6.678;2023-03-17T06:56:01;7.40;90.80
3001;DHT22;1510;51.072;6.678;2023-03-17T06:58:33;7.50;90.50
3001;DHT22;1510;51.072;6.678;2023-03-17T07:01:00;7.60;91.10
3001;DHT22;1510;51.072;6.678;2023-03-17T07:03:27;7.60;90.50
3001;DHT22;1510;51.072;6.678;2023-03-17T07:05:55;7.70;90.50
3001;DHT22;1510;51.072;6.678;2023-03-17T07:08:24;7.90;90.60
3001;DHT22;1510;51.072;6.678;2023-03-17T07:10:54;8.00;90.60
3001;DHT22;1510;51.072;6.678;2023-03-17T07:13:22;8.00;90.60
3001;DHT22;1510;51.072;6.678;2023-03-17T07:15:49;8.20;89.80
3001;DHT22;1510;51.072;6.678;2023-03-17T07:18:16;8.30;90.50
3001;DHT22;1510;51.072;6.678;2023-03-17T07:20:44;8.40;88.80
3001;DHT22;1510;51.072;6.678;2023-03-17T07:23:14;8.60;89.00
3001;DHT22;1510;51.072;6.678;2023-03-17T07:25:43;8.70;88.50
3001;DHT22;1510;51.072;6.678;2023-03-17T07:28:13;8.90;88.60
3001;DHT22;1510;51.072;6.678;2023-03-17T07:30:40;9.00;87.90
3001;DHT22;1510;51.072;6.678;2023-03-17T07:33:11;9.00;86.30
3001;DHT22;1510;51.072;6.678;2023-03-17T07:35:39;9.10;87.50
3001;DHT22;1510;51.072;6.678;2023-03-17T07:38:06;9.20;87.00
3001;DHT22;1510;51.072;6.678;2023-03-17T07:40:33;9.40;85.10
3001;DHT22;1510;51.072;6.678;2023-03-17T07:43:04;9.40;85.20
3001;DHT22;1510;51.072;6.678;2023-03-17T07:45:32;9.50;85.20
3001;DHT22;1510;51.072;6.678;2023-03-17T07:48:01;9.60;83.90
3001;DHT22;1510;51.072;6.678;2023-03-17T07:50:29;9.60;84.00
3001;DHT22;1510;51.072;6.678;2023-03-17T07:53:00;9.60;85.20
3001;DHT22;1510;51.072;6.678;2023-03-17T07:55:29;9.60;84.40
3001;DHT22;1510;51.072;6.678;2023-03-17T07:57:57;9.70;83.50
3001;DHT22;1510;51.072;6.678;2023-03-17T08:00:28;9.80;85.40
3001;DHT22;1510;51.072;6.678;2023-03-17T08:02:55;9.80;83.10
3001;DHT22;1510;51.072;6.678;2023-03-17T08:05:23;9.80;84.20
3001;DHT22;1510;51.072;6.678;2023-03-17T08:07:52;9.90;83.90
3001;DHT22;1510;51.072;6.678;2023-03-17T08:10:20;10.00;83.70
3001;DHT22;1510;51.072;6.678;2023-03-17T08:12:47;10.00;82.40
3001;DHT22;1510;51.072;6.678;2023-03-17T08:15:18;10.10;82.90
3001;DHT22;1510;51.072;6.678;2023-03-17T08:17:49;10.20;82.70
3001;DHT22;1510;51.072;6.678;2023-03-17T08:20:16;10.30;83.50
3001;DHT22;1510;51.072;6.678;2023-03-17T08:22:45;10.40;82.60
3001;DHT22;1510;51.072;6.678;2023-03-17T08:25:12;10.50;81.70
3001;DHT22;1510;51.072;6.678;2023-03-17T08:27:39;10.60;80.60
3001;DHT22;1510;51.072;6.678;2023-03-17T08:30:11;10.60;80.70
3001;DHT22;1510;51.072;6.678;2023-03-17T08:32:39;10.70;81.00
3001;DHT22;1510;51.072;6.678;2023-03-17T08:35:10;10.70;80.20
3001;DHT22;1510;51.072;6.678;2023-03-17T08:37:40;10.80;79.20
3001;DHT22;1510;51.072;6.678;2023-03-17T08:45:15;10.90;77.80
3001;DHT22;1510;51.072;6.678;2023-03-17T08:47:43;11.00;77.90
3001;DHT22;1510;51.072;6.678;2023-03-17T08:50:15;11.10;78.00
3001;DHT22;1510;51.072;6.678;2023-03-17T08:52:42;11.10;78.00
3001;DHT22;1510;51.072;6.678;2023-03-17T08:55:10;11.30;76.80
3001;DHT22;1510;51.072;6.678;2023-03-17T08:57:37;11.40;78.30
3001;DHT22;1510;51.072;6.678;2023-03-17T09:00:05;11.70;76.20
3001;DHT22;1510;51.072;6.678;2023-03-17T09:02:35;12.10;77.50
3001;DHT22;1510;51.072;6.678;2023-03-17T09:05:03;12.60;74.40
3001;DHT22;1510;51.072;6.678;2023-03-17T09:07:31;13.00;71.80
3001;DHT22;1510;51.072;6.678;2023-03-17T09:09:58;13.40;73.10
3001;DHT22;1510;51.072;6.678;2023-03-17T09:12:25;13.50;71.70
3001;DHT22;1510;51.072;6.678;2023-03-17T09:14:51;13.60;71.30
3001;DHT22;1510;51.072;6.678;2023-03-17T09:17:19;13.80;68.40
3001;DHT22;1510;51.072;6.678;2023-03-17T09:19:46;14.00;69.00
3001;DHT22;1510;51.072;6.678;2023-03-17T09:22:14;13.90;69.70
3001;DHT22;1510;51.072;6.678;2023-03-17T09:24:43;14.00;69.30
3001;DHT22;1510;51.072;6.678;2023-03-17T09:27:11;13.90;66.10
3001;DHT22;1510;51.072;6.678;2023-03-17T09:29:38;13.90;67.90
3001;DHT22;1510;51.072;6.678;2023-03-17T09:32:06;13.90;68.20
3001;DHT22;1510;51.072;6.678;2023-03-17T09:34:33;13.90;66.30
3001;DHT22;1510;51.072;6.678;2023-03-17T09:37:00;13.90;66.90
3001;DHT22;1510;51.072;6.678;2023-03-17T09:39:27;14.00;67.10
3001;DHT22;1510;51.072;6.678;2023-03-17T09:42:04;14.00;67.10
3001;DHT22;1510;51.072;6.678;2023-03-17T09:44:53;14.50;66.10
3001;DHT22;1510;51.072;6.678;2023-03-17T09:47:37;15.00;65.50
3001;DHT22;1510;51.072;6.678;2023-03-17T09:50:16;15.30;62.00
3001;DHT22;1510;51.072;6.678;2023-03-17T09:52:59;15.60;61.90
3001;DHT22;1510;51.072;6.678;2023-03-17T09:55:53;15.60;60.50
3001;DHT22;1510;51.072;6.678;2023-03-17T09:58:44;15.90;62.10
3001;DHT22;1510;51.072;6.678;2023-03-17T10:01:16;16.10;60.40
3001;DHT22;1510;51.072;6.678;2023-03-17T10:04:01;16.00;58.10
3001;DHT22;1510;51.072;6.678;2023-03-17T10:06:35;15.90;60.10
3001;DHT22;1510;51.072;6.678;2023-03-17T10:09:45;15.90;58.50
3001;DHT22;1510;51.072;6.678;2023-03-17T10:12:55;15.90;59.70
3001;DHT22;1510;51.072;6.678;2023-03-17T10:15:39;15.50;57.70
3001;DHT22;1510;51.072;6.678;2023-03-17T10:21:03;15.80;59.40
3001;DHT22;1510;51.072;6.678;2023-03-17T10:23:53;15.90;59.50
3001;DHT22;1510;51.072;6.678;2023-03-17T10:26:27;15.90;57.50
3001;DHT22;1510;51.072;6.678;2023-03-17T10:28:55;15.90;57.20
3001;DHT22;1510;51.072;6.678;2023-03-17T10:31:28;15.90;58.10
3001;DHT22;1510;51.072;6.678;2023-03-17T10:34:09;15.90;58.70
3001;DHT22;1510;51.072;6.678;2023-03-17T10:36:39;16.10;60.20
3001;DHT22;1510;51.072;6.678;2023-03-17T10:39:09;16.60;57.50
3001;DHT22;1510;51.072;6.678;2023-03-17T10:41:39;17.40;56.10
3001;DHT22;1510;51.072;6.678;2023-03-17T10:44:08;17.70;51.10
3001;DHT22;1510;51.072;6.678;2023-03-17T10:46:37;18.50;51.80
3001;DHT22;1510;51.072;6.678;2023-03-17T10:49:07;19.40;49.30
3001;DHT22;1510;51.072;6.678;2023-03-17T10:51:36;19.70;44.10
3001;DHT22;1510;51.072;6.678;2023-03-17T10:54:08;20.20;44.60
3001;DHT22;1510;51.072;6.678;2023-03-17T10:56:36;20.30;40.00
3001;DHT22;1510;51.072;6.678;2023-03-17T10:59:13;20.10;38.30
3001;DHT22;1510;51.072;6.678;2023-03-17T11:01:45;20.20;37.50
3001;DHT22;1510;51.072;6.678;2023-03-17T11:04:28;20.40;38.40
3001;DHT22;1510;51.072;6.678;2023-03-17T11:06:56;20.70;37.30
3001;DHT22;1510;51.072;6.678;2023-03-17T11:09:24;20.40;33.00
3001;DHT22;1510;51.072;6.678;2023-03-17T11:12:00;20.40;35.70
3001;DHT22;1510;51.072;6.678;2023-03-17T11:14:28;20.70;35.90
3001;DHT22;1510;51.072;6.678;2023-03-17T11:16:58;20.80;31.50
3001;DHT22;1510;51.072;6.678;2023-03-17T11:20:08;20.50;30.10
3001;DHT22;1510;51.072;6.678;2023-03-17T11:23:09;20.90;32.00
3001;DHT22;1510;51.072;6.678;2023-03-17T11:25:56;21.10;27.80
3001;DHT22;1510;51.072;6.678;2023-03-17T11:28:59;21.40;28.00
3001;DHT22;1510;51.072;6.678;2023-03-17T11:31:42;21.50;28.10
3001;DHT22;1510;51.072;6.678;2023-03-17T11:34:29;21.50;26.80
3001;DHT22;1510;51.072;6.678;2023-03-17T11:37:12;21.20;24.80
3001;DHT22;1510;51.072;6.678;2023-03-17T11:39:53;21.40;26.90
3001;DHT22;1510;51.072;6.678;2023-03-17T11:42:50;21.40;27.30
3001;DHT22;1510;51.072;6.678;2023-03-17T11:45:32;21.70;25.80
3001;DHT22;1510;51.072;6.678;2023-03-17T11:48:31;21.90;25.80
3001;DHT22;1510;51.072;6.678;2023-03-17T11:51:30;21.80;23.90
3001;DHT22;1510;51.072;6.678;2023-03-17T11:54:18;21.50;24.40
3001;DHT22;1510;51.072;6.678;2023-03-17T11:56:54;20.90;27.50
3001;DHT22;1510;51.072;6.678;2023-03-17T11:59:28;20.00;27.10
3001;DHT22;1510;51.072;6.678;2023-03-17T12:02:09;19.90;29.20
3001;DHT22;1510;51.072;6.678;2023-03-17T12:04:48;19.60;28.30
3001;DHT22;1510;51.072;6.678;2023-03-17T12:07:21;19.50;28.60
3001;DHT22;1510;51.072;6.678;2023-03-17T12:09:57;19.50;31.90
3001;DHT22;1510;51.072;6.678;2023-03-17T12:12:29;19.50;31.50
3001;DHT22;1510;51.072;6.678;2023-03-17T12:14:58;19.40;29.90
3001;DHT22;1510;51.072;6.678;2023-03-17T12:17:34;19.70;32.50
3001;DHT22;1510;51.072;6.678;2023-03-17T12:20:11;19.90;28.80
3001;DHT22;1510;51.072;6.678;2023-03-17T12:22:47;19.80;30.20
3001;DHT22;1510;51.072;6.678;2023-03-17T12:25:22;19.50;29.60
3001;DHT22;1510;51.072;6.678;2023-03-17T12:27:57;19.60;34.90
3001;DHT22;1510;51.072;6.678;2023-03-17T12:30:30;19.60;33.40
3001;DHT22;1510;51.072;6.678;2023-03-17T12:33:06;19.40;31.70
3001;DHT22;1510;51.072;6.678;2023-03-17T12:35:37;19.30;32.20
3001;DHT22;1510;51.072;6.678;2023-03-17T12:38:10;19.30;31.50
3001;DHT22;1510;51.072;6.678;2023-03-17T12:40:51;19.30;33.40
3001;DHT22;1510;51.072;6.678;2023-03-17T12:43:41;19.40;31.60
3001;DHT22;1510;51.072;6.678;2023-03-17T12:46:28;19.30;31.60
3001;DHT22;1510;51.072;6.678;2023-03-17T12:49:41;19.40;31.60
3001;DHT22;1510;51.072;6.678;2023-03-17T12:52:20;19.70;34.10
3001;DHT22;1510;51.072;6.678;2023-03-17T12:54:52;19.70;32.80
3001;DHT22;1510;51.072;6.678;2023-03-17T12:57:21;19.60;30.30
3001;DHT22;1510;51.072;6.678;2023-03-17T12:59:55;19.40;32.80
3001;DHT22;1510;51.072;6.678;2023-03-17T13:02:31;19.30;31.80
3001;DHT22;1510;51.072;6.678;2023-03-17T13:05:00;19.20;29.70
3001;DHT22;1510;51.072;6.678;2023-03-17T13:07:33;19.20;29.10
3001;DHT22;1510;51.072;6.678;2023-03-17T13:13:21;19.40;28.20
3001;DHT22;1510;51.072;6.678;2023-03-17T13:15:57;19.40;31.50
3001;DHT22;1510;51.072;6.678;2023-03-17T13:18:49;19.70;34.20
3001;DHT22;1510;51.072;6.678;2023-03-17T13:21:24;19.90;34.10
3001;DHT22;1510;51.072;6.678;2023-03-17T13:23:55;20.50;30.50
3001;DHT22;1510;51.072;6.678;2023-03-17T13:26:49;20.80;29.10
3001;DHT22;1510;51.072;6.678;2023-03-17T13:29:38;21.30;25.80
3001;DHT22;1510;51.072;6.678;2023-03-17T13:35:27;21.20;24.30
3001;DHT22;1510;51.072;6.678;2023-03-17T13:38:31;20.90;25.00
3001;DHT22;1510;51.072;6.678;2023-03-17T13:41:16;20.40;27.30
3001;DHT22;1510;51.072;6.678;2023-03-17T13:43:55;20.70;27.60
3001;DHT22;1510;51.072;6.678;2023-03-17T13:46:32;20.40;29.40
3001;DHT22;1510;51.072;6.678;2023-03-17T13:49:24;20.40;28.10
3001;DHT22;1510;51.072;6.678;2023-03-17T13:52:06;20.40;27.40
3001;DHT22;1510;51.072;6.678;2023-03-17T13:54:40;20.40;29.50
3001;DHT22;1510;51.072;6.678;2023-03-17T13:57:25;20.10;31.30
3001;DHT22;1510;51.072;6.678;2023-03-17T14:00:15;19.80;33.40
3001;DHT22;1510;51.072;6.678;2023-03-17T14:02:47;19.70;35.00
3001;DHT22;1510;51.072;6.678;2023-03-17T14:05:21;19.50;32.60
3001;DHT22;1510;51.072;6.678;2023-03-17T14:07:53;19.20;35.00
3001;DHT22;1510;51.072;6.678;2023-03-17T14:10:24;19.00;34.40
3001;DHT22;1510;51.072;6.678;2023-03-17T14:12:57;18.70;39.70
3001;DHT22;1510;51.072;6.678;2023-03-17T14:15:27;18.70;40.10
3001;DHT22;1510;51.072;6.678;2023-03-17T14:18:01;18.60;39.30
3001;DHT22;1510;51.072;6.678;2023-03-17T14:20:29;18.70;45.00
3001;DHT22;1510;51.072;6.678;2023-03-17T14:22:58;18.60;39.10
3001;DHT22;1510;51.072;6.678;2023-03-17T14:25:30;18.50;40.20
3001;DHT22;1510;51.072;6.678;2023-03-17T14:27:58;18.30;39.30
3001;DHT22;1510;51.072;6.678;2023-03-17T14:30:27;18.30;37.40
3001;DHT22;1510;51.072;6.678;2023-03-17T14:33:00;18.20;38.80
3001;DHT22;1510;51.072;6.678;2023-03-17T14:35:30;18.50;38.30
3001;DHT22;1510;51.072;6.678;2023-03-17T14:37:58;18.70;38.70
3001;DHT22;1510;51.072;6.678;2023-03-17T14:40:29;19.00;37.80
3001;DHT22;1510;51.072;6.678;2023-03-17T14:43:01;19.30;38.90
3001;DHT22;1510;51.072;6.678;2023-03-17T14:45:37;19.50;34.80
3001;DHT22;1510;51.072;6.678;2023-03-17T14:48:13;19.40;36.10
3001;DHT22;1510;51.072;6.678;2023-03-17T14:50:50;19.60;38.80
3001;DHT22;1510;51.072;6.678;2023-03-17T14:53:18;19.20;37.70
3001;DHT22;1510;51.072;6.678;2023-03-17T14:55:51;19.10;39.60
3001;DHT22;1510;51.072;6.678;2023-03-17T14:58:25;18.90;38.70
3001;DHT22;1510;51.072;6.678;2023-03-17T15:00:55;18.90;42.70
3001;DHT22;1510;51.072;6.678;2023-03-17T15:03:27;18.50;42.90
3001;DHT22;1510;51.072;6.678;2023-03-17T15:06:05;18.40;42.90
3001;DHT22;1510;51.072;6.678;2023-03-17T15:08:39;18.10;42.60
3001;DHT22;1510;51.072;6.678;2023-03-17T15:11:16;17.80;47.00
3001;DHT22;1510;51.072;6.678;2023-03-17T15:13:45;17.40;41.90
3001;DHT22;1510;51.072;6.678;2023-03-17T15:16:19;17.30;45.50
3001;DHT22;1510;51.072;6.678;2023-03-17T15:19:01;17.40;47.60
3001;DHT22;1510;51.072;6.678;2023-03-17T15:21:33;17.10;48.00
3001;DHT22;1510;51.072;6.678;2023-03-17T15:24:05;17.00;50.40
3001;DHT22;1510;51.072;6.678;2023-03-17T15:26:36;17.00;50.40
3001;DHT22;1510;51.072;6.678;2023-03-17T15:29:02;17.10;53.90
3001;DHT22;1510;51.072;6.678;2023-03-17T15:31:29;17.00;51.30
3001;DHT22;1510;51.072;6.678;2023-03-17T15:33:58;17.00;50.40
3001;DHT22;1510;51.072;6.678;2023-03-17T15:36:24;16.70;52.90
3001;DHT22;1510;51.072;6.678;2023-03-17T15:38:52;16.50;57.50
3001;DHT22;1510;51.072;6.678;2023-03-17T15:41:20;16.50;58.60
3001;DHT22;1510;51.072;6.678;2023-03-17T15:43:47;16.40;61.70
3001;DHT22;1510;51.072;6.678;2023-03-17T15:46:20;15.80;82.30
3001;DHT22;1510;51.072;6.678;2023-03-17T15:48:48;15.70;76.80
3001;DHT22;1510;51.072;6.678;2023-03-17T15:51:17;15.70;66.20
3001;DHT22;1510;51.072;6.678;2023-03-17T15:53:44;15.60;70.90
3001;DHT22;1510;51.072;6.678;2023-03-17T15:56:16;15.60;68.90
3001;DHT22;1510;51.072;6.678;2023-03-17T15:58:43;15.40;65.90
3001;DHT22;1510;51.072;6.678;2023-03-17T16:01:11;15.40;65.90
3001;DHT22;1510;51.072;6.678;2023-03-17T16:03:41;15.40;66.50
3001;DHT22;1510;51.072;6.678;2023-03-17T16:06:14;15.30;65.90
3001;DHT22;1510;51.072;6.678;2023-03-17T16:08:43;15.20;65.70
3001;DHT22;1510;51.072;6.678;2023-03-17T16:11:14;15.10;69.50
3001;DHT22;1510;51.072;6.678;2023-03-17T16:13:42;14.90;66.20
3001;DHT22;1510;51.072;6.678;2023-03-17T16:16:16;14.90;66.90
3001;DHT22;1510;51.072;6.678;2023-03-17T16:18:47;14.80;65.30
3001;DHT22;1510;51.072;6.678;2023-03-17T16:21:15;14.70;66.80
3001;DHT22;1510;51.072;6.678;2023-03-17T16:23:43;14.70;65.30
3001;DHT22;1510;51.072;6.678;2023-03-17T16:26:12;14.60;65.20
3001;DHT22;1510;51.072;6.678;2023-03-17T16:28:39;14.60;65.10
3001;DHT22;1510;51.072;6.678;2023-03-17T16:31:16;14.50;65.10
3001;DHT22;1510;51.072;6.678;2023-03-17T16:33:44;14.40;65.00
3001;DHT22;1510;51.072;6.678;2023-03-17T16:36:20;14.40;65.00
3001;DHT22;1510;51.072;6.678;2023-03-17T16:38:49;14.40;65.00
3001;DHT22;1510;51.072;6.678;2023-03-17T16:41:19;14.30;63.30
3001;DHT22;1510;51.072;6.678;2023-03-17T16:44:05;14.20;63.10
3001;DHT22;1510;51.072;6.678;2023-03-17T16:46:35;14.20;62.20
3001;DHT22;1510;51.072;6.678;2023-03-17T16:49:02;14.10;60.40
3001;DHT22;1510;51.072;6.678;2023-03-17T16:51:32;14.10;61.70
3001;DHT22;1510;51.072;6.678;2023-03-17T16:54:00;14.10;61.60
3001;DHT22;1510;51.072;6.678;2023-03-17T16:56:27;14.00;63.70
3001;DHT22;1510;51.072;6.678;2023-03-17T16:58:54;14.00;62.90